Time;durP1;ratioP1;P1;durP2;ratioP2;P2;SDS_P1;SDS_P2;PMS_P1;PMS_P2;Temp;Humidity;BMP_temperature;BMP_pressure;BME280_temperature;BME280_humidity;BME280_pressure;Samples;Min_cycle;Max_cycle;Signal;HPM_P1;HPM_P2
2024/02/11 00:01:39;;;;;;;5.70;4.50;;;;;;;;;;4918261;29;20177;-85
2024/02/11 00:04:45;;;;;;;10.50;4.90;;;;;;;;;;4919803;29;20181;-85
2024/02/11 00:07:49;;;;;;;9.30;5.80;;;;;;;;;;4918338;29;20221;-84
2024/02/11 00:10:53;;;;;;;9.47;6.50;;;;;;;;;;4918434;29;20220;-85
2024/02/11 00:13:58;;;;;;;10.73;7.07;;;;;;;;;;4917364;29;20185;-84
2024/02/11 00:17:02;;;;;;;8.73;5.37;;;;;;;;;;4919380;29;20185;-84
2024/02/11 00:20:09;;;;;;;9.20;5.47;;;;;;;;;;4921126;29;20559;-84
2024/02/11 00:23:13;;;;;;;13.50;6.27;;;;;;;;;;4928336;29;20185;-84
2024/02/11 00:26:17;;;;;;;7.60;5.30;;;;;;;;;;4918364;29;20185;-84
2024/02/11 00:29:22;;;;;;;7.47;5.37;;;;;;;;;;4917395;29;20224;-85
2024/02/11 00:32:27;;;;;;;8.47;5.97;;;;;;;;;;4917528;29;20217;-84
2024/02/11 00:35:31;;;;;;;7.57;6.07;;;;;;;;;;4918575;29;20184;-85
2024/02/11 00:38:35;;;;;;;7.90;5.60;;;;;;;;;;4917718;29;20228;-85
2024/02/11 00:41:41;;;;;;;8.40;6.13;;;;;;;;;;4928609;29;20185;-85
2024/02/11 00:44:45;;;;;;;8.20;5.70;;;;;;;;;;4918546;29;20189;-84
2024/02/11 00:47:50;;;;;;;11.40;6.40;;;;;;;;;;4919176;29;20694;-85
2024/02/11 00:50:55;;;;;;;9.27;5.90;;;;;;;;;;4918565;29;20221;-84
2024/02/11 00:54:02;;;;;;;9.37;6.30;;;;;;;;;;4917752;29;20528;-84
2024/02/11 00:57:06;;;;;;;8.47;6.00;;;;;;;;;;4917690;29;20189;-84
2024/02/11 01:00:11;;;;;;;9.10;6.07;;;;;;;;;;4928543;29;20184;-85
2024/02/11 01:03:15;;;;;;;9.87;5.63;;;;;;;;;;4917487;29;20565;-85
2024/02/11 01:06:19;;;;;;;8.20;5.40;;;;;;;;;;4918590;29;20634;-85
2024/02/11 01:09:27;;;;;;;7.83;5.43;;;;;;;;;;4928298;29;20216;-84
2024/02/11 01:12:31;;;;;;;7.43;5.27;;;;;;;;;;4917138;29;20578;-85
2024/02/11 01:15:37;;;;;;;10.77;5.83;;;;;;;;;;4917760;29;20184;-85
2024/02/11 01:18:43;;;;;;;9.20;6.47;;;;;;;;;;4917649;29;20221;-84
2024/02/11 01:21:47;;;;;;;8.97;6.27;;;;;;;;;;4928718;29;20558;-84
2024/02/11 01:24:51;;;;;;;9.37;5.87;;;;;;;;;;4917552;29;20182;-84
2024/02/11 01:27:55;;;;;;;6.90;5.57;;;;;;;;;;4917735;29;20232;-84
2024/02/11 01:30:59;;;;;;;10.87;6.50;;;;;;;;;;4918800;29;20543;-85
2024/02/11 01:34:05;;;;;;;7.20;5.57;;;;;;;;;;4918300;29;20193;-85
2024/02/11 01:37:09;;;;;;;7.33;5.70;;;;;;;;;;4918448;29;20184;-84
2024/02/11 01:40:19;;;;;;;11.70;5.80;;;;;;;;;;4918172;29;20185;-84
2024/02/11 01:43:25;;;;;;;10.77;6.43;;;;;;;;;;4918184;29;20173;-84
2024/02/11 01:46:29;;;;;;;8.97;6.20;;;;;;;;;;4929126;29;20631;-84
2024/02/11 01:49:35;;;;;;;7.60;6.03;;;;;;;;;;4928648;29;20228;-85
2024/02/11 01:52:40;;;;;;;9.90;6.17;;;;;;;;;;4916613;29;20212;-84
2024/02/11 01:55:45;;;;;;;8.00;5.93;;;;;;;;;;4927836;29;20252;-84
2024/02/11 01:58:50;;;;;;;8.90;6.50;;;;;;;;;;4916942;29;20212;-85
2024/02/11 02:01:54;;;;;;;8.57;6.23;;;;;;;;;;4918603;29;20181;-84
2024/02/11 02:04:59;;;;;;;11.30;5.97;;;;;;;;;;4906366;29;20185;-85
2024/02/11 02:08:04;;;;;;;10.13;5.80;;;;;;;;;;4916972;29;20715;-85
2024/02/11 02:11:09;;;;;;;8.20;5.93;;;;;;;;;;4920657;29;20181;-84
2024/02/11 02:14:13;;;;;;;8.63;6.00;;;;;;;;;;4920277;29;20185;-84
2024/02/11 02:17:17;;;;;;;9.17;6.10;;;;;;;;;;4920574;29;20181;-84
2024/02/11 02:20:21;;;;;;;7.93;5.60;;;;;;;;;;4930825;29;20204;-84
2024/02/11 02:23:25;;;;;;;9.97;6.03;;;;;;;;;;4930404;29;20181;-84
2024/02/11 02:26:29;;;;;;;8.20;5.70;;;;;;;;;;4909151;29;20185;-85
2024/02/11 02:29:34;;;;;;;7.50;5.83;;;;;;;;;;4929978;29;20221;-84
2024/02/11 02:32:38;;;;;;;8.40;5.97;;;;;;;;;;4919715;29;20217;-84
2024/02/11 02:35:42;;;;;;;8.97;5.93;;;;;;;;;;4920353;29;20193;-84
2024/02/11 02:38:46;;;;;;;8.23;5.77;;;;;;;;;;4919659;29;20224;-84
2024/02/11 02:41:50;;;;;;;9.83;5.77;;;;;;;;;;4919859;29;20185;-85
2024/02/11 02:44:54;;;;;;;9.87;6.87;;;;;;;;;;4919796;29;20215;-84
2024/02/11 02:47:58;;;;;;;8.60;6.33;;;;;;;;;;4919038;29;20226;-84
2024/02/11 02:51:04;;;;;;;10.03;7.90;;;;;;;;;;4930176;29;20189;-85
2024/02/11 02:54:09;;;;;;;12.30;8.40;;;;;;;;;;4919755;29;20519;-84
2024/02/11 02:57:13;;;;;;;11.77;7.30;;;;;;;;;;4918408;29;20185;-84
2024/02/11 03:00:21;;;;;;;10.40;7.80;;;;;;;;;;4919378;29;20186;-84
2024/02/11 03:03:25;;;;;;;10.27;7.80;;;;;;;;;;4918590;29;20189;-84
2024/02/11 03:06:29;;;;;;;11.07;8.07;;;;;;;;;;4918894;29;20623;-82
2024/02/11 03:09:34;;;;;;;11.50;8.37;;;;;;;;;;4928615;29;20216;-83
2024/02/11 03:12:38;;;;;;;11.00;7.93;;;;;;;;;;4928522;29;20212;-82
2024/02/11 03:15:43;;;;;;;11.23;8.33;;;;;;;;;;4930884;29;20189;-83
2024/02/11 03:18:48;;;;;;;13.23;8.50;;;;;;;;;;4920500;29;20228;-82
2024/02/11 03:21:54;;;;;;;11.57;8.20;;;;;;;;;;4920289;29;20177;-82
2024/02/11 03:24:59;;;;;;;12.33;8.83;;;;;;;;;;4918604;29;20185;-82
2024/02/11 03:28:03;;;;;;;14.50;9.50;;;;;;;;;;4928653;29;20212;-83
2024/02/11 03:31:07;;;;;;;13.10;8.60;;;;;;;;;;4918545;29;20524;-82
2024/02/11 03:34:12;;;;;;;13.23;9.00;;;;;;;;;;4918495;29;20174;-83
2024/02/11 03:37:16;;;;;;;13.47;9.00;;;;;;;;;;4918628;29;20185;-83
2024/02/11 03:40:21;;;;;;;14.77;8.90;;;;;;;;;;4917602;29;20181;-82
2024/02/11 03:43:24;;;;;;;13.63;9.27;;;;;;;;;;4918433;29;20181;-82
2024/02/11 03:46:29;;;;;;;12.80;8.90;;;;;;;;;;4917373;29;20185;-82
2024/02/11 03:49:33;;;;;;;12.40;9.00;;;;;;;;;;4918332;29;20225;-82
2024/02/11 03:52:37;;;;;;;12.13;8.60;;;;;;;;;;4928417;29;20212;-82
2024/02/11 03:55:41;;;;;;;12.07;9.10;;;;;;;;;;4928869;29;20184;-82
2024/02/11 03:58:45;;;;;;;11.70;9.07;;;;;;;;;;4917982;29;20224;-82
2024/02/11 04:01:49;;;;;;;14.13;9.17;;;;;;;;;;4918762;29;20185;-82
2024/02/11 04:04:54;;;;;;;10.87;8.63;;;;;;;;;;4928435;29;20642;-83
2024/02/11 04:08:01;;;;;;;12.83;8.83;;;;;;;;;;4919311;29;20220;-83
2024/02/11 04:11:06;;;;;;;15.33;8.67;;;;;;;;;;4930939;29;20185;-82
2024/02/11 04:14:12;;;;;;;13.10;9.60;;;;;;;;;;4920836;29;20185;-83
2024/02/11 04:17:16;;;;;;;12.27;8.83;;;;;;;;;;4929760;29;20193;-83
2024/02/11 04:20:24;;;;;;;13.60;9.20;;;;;;;;;;4919754;29;20212;-83
2024/02/11 04:23:28;;;;;;;13.33;8.67;;;;;;;;;;4918630;29;20634;-82
2024/02/11 04:26:33;;;;;;;15.23;10.80;;;;;;;;;;4918668;29;20181;-83
2024/02/11 04:29:38;;;;;;;15.03;11.07;;;;;;;;;;4929239;29;20220;-82
2024/02/11 04:32:42;;;;;;;15.80;10.33;;;;;;;;;;4919096;29;20559;-83
2024/02/11 04:35:47;;;;;;;17.57;11.67;;;;;;;;;;4919829;29;20185;-83
2024/02/11 04:38:52;;;;;;;17.73;12.47;;;;;;;;;;4918280;29;20216;-83
2024/02/11 04:41:57;;;;;;;16.60;12.03;;;;;;;;;;4918773;29;20197;-83
2024/02/11 04:45:05;;;;;;;16.93;11.53;;;;;;;;;;4918666;29;20180;-83
2024/02/11 04:48:10;;;;;;;16.57;11.63;;;;;;;;;;4918152;29;20216;-83
2024/02/11 04:51:16;;;;;;;15.80;11.93;;;;;;;;;;4928467;29;20189;-83
2024/02/11 04:54:21;;;;;;;17.37;11.87;;;;;;;;;;4917912;29;20182;-83
2024/02/11 04:57:25;;;;;;;19.07;12.73;;;;;;;;;;4918719;29;20189;-83
2024/02/11 05:00:33;;;;;;;20.03;13.33;;;;;;;;;;4927841;29;20185;-82
2024/02/11 05:03:40;;;;;;;19.80;13.47;;;;;;;;;;4917058;29;20177;-83
2024/02/11 05:06:46;;;;;;;19.17;13.43;;;;;;;;;;4927611;29;20185;-82
2024/02/11 05:09:50;;;;;;;19.33;13.57;;;;;;;;;;4926219;29;20181;-83
2024/02/11 05:12:56;;;;;;;22.83;13.27;;;;;;;;;;4925876;29;20213;-83
2024/02/11 05:16:03;;;;;;;16.47;12.43;;;;;;;;;;4916447;29;20181;-82
2024/02/11 05:19:07;;;;;;;16.07;12.43;;;;;;;;;;4915820;29;20228;-82
2024/02/11 05:22:11;;;;;;;16.37;12.13;;;;;;;;;;4915977;29;20524;-83
2024/02/11 05:25:19;;;;;;;20.50;12.70;;;;;;;;;;4917172;29;20535;-83
2024/02/11 05:28:23;;;;;;;18.23;12.47;;;;;;;;;;4916574;29;20221;-83
2024/02/11 05:31:29;;;;;;;19.97;12.53;;;;;;;;;;4916270;29;20181;-83
2024/02/11 05:34:39;;;;;;;18.80;12.63;;;;;;;;;;4917397;29;20186;-83
2024/02/11 05:37:46;;;;;;;20.90;14.07;;;;;;;;;;4927993;29;20181;-83
2024/02/11 05:40:56;;;;;;;20.83;13.53;;;;;;;;;;4915841;29;20185;-84
2024/02/11 05:44:00;;;;;;;19.33;13.13;;;;;;;;;;4917619;29;20178;-83
2024/02/11 05:47:05;;;;;;;22.53;13.63;;;;;;;;;;4930134;29;20193;-83
2024/02/11 05:50:10;;;;;;;21.27;13.83;;;;;;;;;;4920697;29;20185;-83
2024/02/11 05:53:15;;;;;;;19.63;14.00;;;;;;;;;;4929818;29;20212;-83
2024/02/11 05:56:19;;;;;;;19.83;13.83;;;;;;;;;;4920018;29;20185;-83
2024/02/11 05:59:23;;;;;;;24.17;14.80;;;;;;;;;;4920903;29;20225;-83
2024/02/11 06:02:27;;;;;;;21.73;14.37;;;;;;;;;;4930134;29;20193;-83
2024/02/11 06:05:31;;;;;;;23.57;15.07;;;;;;;;;;4930599;29;20188;-83
2024/02/11 06:08:36;;;;;;;14.83;7.67;;;;;;;;;;4919986;29;20224;-83
2024/02/11 06:11:40;;;;;;;10.20;6.27;;;;;;;;;;4930831;29;20626;-83
2024/02/11 06:14:44;;;;;;;8.00;4.80;;;;;;;;;;4920774;29;20181;-83
2024/02/11 06:17:57;;;;;;;4.10;2.53;;;;;;;;;;4920157;29;20221;-82
2024/02/11 06:21:01;;;;;;;3.00;1.83;;;;;;;;;;4921722;29;20217;-83
2024/02/11 06:24:05;;;;;;;1.20;1.10;;;;;;;;;;4922333;29;20181;-83
2024/02/11 06:27:10;;;;;;;1.43;0.97;;;;;;;;;;4922409;29;20189;-83
2024/02/11 06:30:17;;;;;;;0.80;0.80;;;;;;;;;;4922899;29;20189;-82
2024/02/11 06:33:21;;;;;;;3.23;0.90;;;;;;;;;;4921816;29;20209;-85
2024/02/11 06:36:26;;;;;;;0.80;0.80;;;;;;;;;;4923461;29;20638;-82
2024/02/11 06:39:30;;;;;;;1.20;1.00;;;;;;;;;;4923216;29;20224;-82
2024/02/11 06:42:35;;;;;;;1.10;1.00;;;;;;;;;;4921567;29;20177;-83
2024/02/11 06:45:40;;;;;;;1.17;1.00;;;;;;;;;;4922966;29;20181;-82
2024/02/11 06:48:44;;;;;;;1.07;1.00;;;;;;;;;;4931487;29;20221;-82
2024/02/11 06:51:50;;;;;;;1.80;1.13;;;;;;;;;;4921637;29;20189;-82
2024/02/11 06:54:55;;;;;;;2.70;1.40;;;;;;;;;;4919538;29;20181;-80
2024/02/11 06:57:59;;;;;;;1.20;1.10;;;;;;;;;;4918601;29;20220;-82
2024/02/11 07:01:08;;;;;;;1.90;1.20;;;;;;;;;;4920497;29;20181;-82
2024/02/11 07:04:13;;;;;;;23.43;13.33;;;;;;;;;;4918358;29;20181;-83
2024/02/11 07:07:16;;;;;;;2.47;1.93;;;;;;;;;;4917557;29;20193;-83
2024/02/11 07:10:21;;;;;;;2.03;1.83;;;;;;;;;;4927761;29;20185;-83
2024/02/11 07:13:25;;;;;;;1.80;1.70;;;;;;;;;;4918117;29;20209;-83
2024/02/11 07:16:29;;;;;;;4.47;3.10;;;;;;;;;;4907135;29;20193;-83
2024/02/11 07:19:33;;;;;;;5.00;3.70;;;;;;;;;;4918522;29;20228;-83
2024/02/11 07:22:40;;;;;;;3.20;2.47;;;;;;;;;;4908193;29;20197;-83
2024/02/11 07:25:46;;;;;;;4.30;2.60;;;;;;;;;;4908183;29;20181;-83
2024/02/11 07:28:53;;;;;;;2.30;2.10;;;;;;;;;;4919816;29;20225;-83
2024/02/11 07:31:58;;;;;;;1.33;1.23;;;;;;;;;;4930308;29;20185;-83
2024/02/11 07:35:03;;;;;;;2.10;1.90;;;;;;;;;;4918880;29;20184;-83
2024/02/11 07:38:07;;;;;;;1.70;1.60;;;;;;;;;;4919922;29;20224;-82
2024/02/11 07:41:11;;;;;;;1.97;1.77;;;;;;;;;;4920400;29;20185;-83
2024/02/11 07:44:15;;;;;;;3.13;1.80;;;;;;;;;;4922300;29;20538;-83
2024/02/11 07:47:20;;;;;;;1.73;1.43;;;;;;;;;;4921621;29;20184;-82
2024/02/11 07:50:24;;;;;;;2.93;2.73;;;;;;;;;;4922664;29;20182;-82
2024/02/11 07:53:29;;;;;;;4.33;2.63;;;;;;;;;;4931458;29;20681;-83
2024/02/11 07:56:33;;;;;;;3.93;3.53;;;;;;;;;;4919314;29;20186;-82
2024/02/11 07:59:38;;;;;;;3.20;2.90;;;;;;;;;;4919973;29;20221;-79
2024/02/11 08:02:43;;;;;;;2.83;2.63;;;;;;;;;;4919940;29;20185;-86
2024/02/11 08:05:48;;;;;;;4.17;3.77;;;;;;;;;;4919233;29;20188;-81
2024/02/11 08:08:52;;;;;;;3.90;3.53;;;;;;;;;;4917658;29;20228;-85
2024/02/11 08:11:58;;;;;;;4.60;4.20;;;;;;;;;;4918032;29;20181;-84
2024/02/11 08:15:04;;;;;;;5.53;4.43;;;;;;;;;;4921182;29;20209;-83
2024/02/11 08:18:09;;;;;;;3.83;2.50;;;;;;;;;;4931182;29;20225;-83
2024/02/11 08:21:14;;;;;;;1.90;1.70;;;;;;;;;;4891259;29;20678;-83
2024/02/11 08:24:18;;;;;;;4.93;3.63;;;;;;;;;;4900709;29;20185;-83
2024/02/11 08:27:23;;;;;;;2.17;1.87;;;;;;;;;;4888349;29;20189;-83
2024/02/11 08:30:28;;;;;;;2.47;2.27;;;;;;;;;;4901054;29;20186;-83
2024/02/11 08:33:32;;;;;;;1.63;1.53;;;;;;;;;;4901634;29;20209;-84
2024/02/11 08:36:37;;;;;;;1.80;1.70;;;;;;;;;;4913706;29;20185;-84
2024/02/11 08:39:41;;;;;;;4.07;2.03;;;;;;;;;;4911903;29;20578;-83
2024/02/11 08:42:45;;;;;;;5.13;3.90;;;;;;;;;;4890181;29;20189;-84
2024/02/11 08:45:50;;;;;;;1.70;1.60;;;;;;;;;;4899662;29;20181;-83
2024/02/11 08:48:53;;;;;;;2.10;2.00;;;;;;;;;;4901710;29;20225;-84
2024/02/11 08:51:58;;;;;;;3.50;3.20;;;;;;;;;;4891850;29;20186;-84
2024/02/11 08:55:04;;;;;;;1.80;1.70;;;;;;;;;;4902378;29;20221;-84
2024/02/11 08:58:08;;;;;;;2.60;2.40;;;;;;;;;;4912431;29;20220;-84
2024/02/11 09:01:13;;;;;;;5.30;4.80;;;;;;;;;;4901060;29;20186;-84
2024/02/11 09:04:19;;;;;;;10.20;8.77;;;;;;;;;;4890817;29;20182;-82
2024/02/11 09:07:23;;;;;;;3.43;3.13;;;;;;;;;;4896465;29;20182;-83
2024/02/11 09:10:27;;;;;;;2.87;2.67;;;;;;;;;;4907508;29;20193;-82
2024/02/11 09:13:35;;;;;;;4.90;4.50;;;;;;;;;;4896701;29;20280;-82
2024/02/11 09:16:39;;;;;;;6.37;3.50;;;;;;;;;;4897610;29;20189;-82
2024/02/11 09:19:44;;;;;;;7.50;4.77;;;;;;;;;;4906512;29;20229;-82
2024/02/11 09:22:49;;;;;;;2.47;2.27;;;;;;;;;;4907011;29;20190;-82
2024/02/11 09:25:53;;;;;;;3.50;3.20;;;;;;;;;;4907320;29;20177;-83
2024/02/11 09:28:57;;;;;;;3.20;2.40;;;;;;;;;;4896129;29;20221;-82
2024/02/11 09:32:03;;;;;;;2.43;2.23;;;;;;;;;;4906976;29;20540;-82
2024/02/11 09:35:07;;;;;;;4.33;3.93;;;;;;;;;;4901117;29;20214;-83
2024/02/11 09:38:14;;;;;;;10.27;5.20;;;;;;;;;;4899592;29;20225;-83
2024/02/11 09:41:18;;;;;;;1.70;1.60;;;;;;;;;;4899715;29;20185;-83
2024/02/11 09:44:28;;;;;;;5.80;3.70;;;;;;;;;;4900867;29;20185;-87
2024/02/11 09:47:35;;;;;;;11.13;6.13;;;;;;;;;;4898116;29;20182;-81
2024/02/11 09:50:42;;;;;;;3.13;2.80;;;;;;;;;;4898719;29;20185;-80
2024/02/11 09:53:48;;;;;;;34.37;13.10;;;;;;;;;;4900396;29;20213;-83
2024/02/11 09:56:52;;;;;;;3.07;2.30;;;;;;;;;;4889379;29;20189;-82
2024/02/11 09:59:56;;;;;;;4.23;2.73;;;;;;;;;;4901719;29;20186;-83
2024/02/11 10:03:07;;;;;;;4.47;3.10;;;;;;;;;;4904137;29;20181;-83
2024/02/11 10:06:17;;;;;;;2.33;1.80;;;;;;;;;;4904301;29;20182;-83
2024/02/11 10:09:22;;;;;;;2.30;2.10;;;;;;;;;;4905466;29;20221;-82
2024/02/11 10:12:27;;;;;;;3.67;3.37;;;;;;;;;;4906577;29;20186;-83
2024/02/11 10:15:35;;;;;;;3.17;2.87;;;;;;;;;;4905878;29;20217;-82
2024/02/11 10:18:40;;;;;;;3.80;3.50;;;;;;;;;;4904304;29;20222;-83
2024/02/11 10:21:44;;;;;;;2.60;2.40;;;;;;;;;;4915299;29;20186;-83
2024/02/11 10:24:51;;;;;;;3.60;3.20;;;;;;;;;;4893618;29;20178;-83
2024/02/11 10:27:55;;;;;;;4.43;4.03;;;;;;;;;;4903899;29;20225;-83
2024/02/11 10:31:01;;;;;;;2.60;2.40;;;;;;;;;;4905944;29;20194;-83
2024/02/11 10:34:08;;;;;;;4.20;3.87;;;;;;;;;;4907850;29;20594;-85
2024/02/11 10:37:14;;;;;;;3.23;2.93;;;;;;;;;;4907234;29;20186;-83
2024/02/11 10:40:19;;;;;;;2.70;2.50;;;;;;;;;;4905813;29;20186;-82
2024/02/11 10:43:24;;;;;;;3.27;2.73;;;;;;;;;;4916471;29;20189;-82
2024/02/11 10:46:29;;;;;;;5.77;3.03;;;;;;;;;;4916393;29;20182;-83
2024/02/11 10:49:33;;;;;;;3.63;3.30;;;;;;;;;;4905385;29;20226;-83
2024/02/11 10:52:43;;;;;;;3.97;3.57;;;;;;;;;;4904354;29;20190;-83
2024/02/11 10:55:49;;;;;;;3.70;3.30;;;;;;;;;;4904765;29;20205;-83
2024/02/11 10:59:13;;;;;;;4.60;4.20;;;;;;;;;;4904658;29;20674;-82
2024/02/11 11:02:18;;;;;;;4.03;3.63;;;;;;;;;;4905625;29;20194;-83
2024/02/11 11:05:26;;;;;;;4.27;3.47;;;;;;;;;;4905647;29;20178;-82
2024/02/11 11:08:32;;;;;;;3.30;3.00;;;;;;;;;;4903909;29;20221;-83
2024/02/11 11:11:36;;;;;;;3.37;3.07;;;;;;;;;;4903270;29;20186;-82
2024/02/11 11:14:48;;;;;;;3.20;2.90;;;;;;;;;;4902506;29;20217;-83
2024/02/11 11:17:53;;;;;;;5.47;3.80;;;;;;;;;;4880749;29;20710;-83
2024/02/11 11:21:04;;;;;;;4.87;4.33;;;;;;;;;;4892482;29;20209;-83
2024/02/11 11:24:10;;;;;;;3.47;3.07;;;;;;;;;;4913054;29;20178;-83
2024/02/11 11:27:18;;;;;;;5.07;3.70;;;;;;;;;;4901782;29;20178;-82
2024/02/11 11:30:24;;;;;;;5.70;5.10;;;;;;;;;;4902351;29;20177;-83
2024/02/11 11:33:34;;;;;;;5.53;4.17;;;;;;;;;;4890208;29;20193;-83
2024/02/11 11:36:38;;;;;;;7.13;4.30;;;;;;;;;;4912334;29;20190;-82
2024/02/11 11:39:46;;;;;;;5.80;4.57;;;;;;;;;;4901609;29;20598;-83
2024/02/11 11:42:50;;;;;;;4.90;4.40;;;;;;;;;;4900256;29;20198;-83
2024/02/11 11:46:03;;;;;;;4.60;4.10;;;;;;;;;;4900217;29;20185;-83
2024/02/11 11:49:08;;;;;;;5.10;4.40;;;;;;;;;;4910951;29;20221;-83
2024/02/11 11:52:15;;;;;;;6.07;4.53;;;;;;;;;;4912647;29;20185;-83
2024/02/11 11:55:21;;;;;;;6.03;5.20;;;;;;;;;;4889448;29;20217;-83
2024/02/11 11:58:30;;;;;;;6.83;4.17;;;;;;;;;;4900784;29;20225;-82
2024/02/11 12:01:34;;;;;;;6.40;4.43;;;;;;;;;;4899653;29;20189;-83
2024/02/11 12:04:38;;;;;;;6.73;5.00;;;;;;;;;;4899722;29;20181;-82
2024/02/11 12:07:42;;;;;;;5.57;4.80;;;;;;;;;;4900621;29;20189;-83
2024/02/11 12:11:00;;;;;;;6.80;4.90;;;;;;;;;;4900132;29;20190;-84
2024/02/11 12:14:04;;;;;;;5.63;4.47;;;;;;;;;;4901398;29;20187;-86
2024/02/11 12:17:09;;;;;;;5.00;4.33;;;;;;;;;;4911888;29;20186;-85
2024/02/11 12:20:15;;;;;;;5.33;4.27;;;;;;;;;;4904577;29;20213;-85
2024/02/11 12:23:26;;;;;;;6.43;4.40;;;;;;;;;;4891043;29;20181;-83
2024/02/11 12:26:32;;;;;;;6.37;4.60;;;;;;;;;;4901659;29;20186;-84
2024/02/11 12:29:38;;;;;;;8.97;4.63;;;;;;;;;;4900327;29;20241;-83
2024/02/11 12:32:42;;;;;;;7.27;4.70;;;;;;;;;;4888791;29;20186;-83
2024/02/11 12:35:47;;;;;;;7.67;4.50;;;;;;;;;;4899873;29;20221;-83
2024/02/11 12:38:55;;;;;;;6.93;4.80;;;;;;;;;;4910332;29;20221;-83
2024/02/11 12:42:00;;;;;;;6.23;4.13;;;;;;;;;;4900870;29;20189;-80
2024/02/11 12:45:06;;;;;;;5.13;3.83;;;;;;;;;;4899560;28;20224;-82
2024/02/11 12:48:14;;;;;;;5.57;4.00;;;;;;;;;;4897965;29;20213;-82
2024/02/11 12:51:20;;;;;;;5.77;4.17;;;;;;;;;;4909955;29;20293;-82
2024/02/11 12:54:25;;;;;;;6.50;3.97;;;;;;;;;;4897962;29;20186;-82
2024/02/11 12:57:30;;;;;;;6.40;4.40;;;;;;;;;;4898670;29;20186;-82
2024/02/11 13:00:34;;;;;;;6.23;5.00;;;;;;;;;;4898961;29;20182;-83
2024/02/11 13:03:39;;;;;;;19.63;10.77;;;;;;;;;;4909352;29;20651;-84
2024/02/11 13:06:43;;;;;;;58.90;35.20;;;;;;;;;;4899620;29;20182;-83
2024/02/11 13:09:47;;;;;;;19.73;13.20;;;;;;;;;;4899068;29;20564;-84
2024/02/11 13:12:53;;;;;;;6.47;5.00;;;;;;;;;;4899042;29;20185;-85
2024/02/11 13:15:59;;;;;;;6.23;5.30;;;;;;;;;;4887516;29;20209;-85
2024/02/11 13:19:05;;;;;;;5.90;4.97;;;;;;;;;;4898157;29;20690;-84
2024/02/11 13:22:14;;;;;;;6.80;5.90;;;;;;;;;;4888099;29;20189;-84
2024/02/11 13:25:20;;;;;;;6.87;5.17;;;;;;;;;;4899006;29;20182;-84
2024/02/11 13:28:32;;;;;;;6.70;5.30;;;;;;;;;;4899797;29;20217;-84
2024/02/11 13:31:39;;;;;;;7.73;5.17;;;;;;;;;;4888073;29;20186;-84
2024/02/11 13:34:48;;;;;;;7.50;5.23;;;;;;;;;;4899158;29;20210;-84
2024/02/11 13:37:52;;;;;;;9.07;5.07;;;;;;;;;;4887785;29;20221;-82
2024/02/11 13:40:57;;;;;;;6.57;4.37;;;;;;;;;;4900092;29;20189;-84
2024/02/11 13:44:03;;;;;;;7.40;4.63;;;;;;;;;;4898734;29;20198;-84
2024/02/11 13:47:13;;;;;;;9.27;7.50;;;;;;;;;;4888514;29;20182;-84
2024/02/11 13:50:17;;;;;;;5.70;4.77;;;;;;;;;;4898046;29;20186;-83
2024/02/11 13:53:22;;;;;;;7.17;4.93;;;;;;;;;;4898202;29;20185;-84
2024/02/11 13:56:26;;;;;;;8.27;4.40;;;;;;;;;;4898715;29;20214;-84
2024/02/11 13:59:30;;;;;;;6.20;5.20;;;;;;;;;;4898200;29;20292;-83
2024/02/11 14:02:34;;;;;;;6.87;4.90;;;;;;;;;;4897569;29;20185;-84
2024/02/11 14:05:40;;;;;;;8.17;5.53;;;;;;;;;;4879998;29;20631;-84
2024/02/11 14:08:47;;;;;;;6.80;6.10;;;;;;;;;;4902332;29;20229;-84
2024/02/11 14:11:52;;;;;;;10.17;8.43;;;;;;;;;;4913330;29;20197;-84
2024/02/11 14:14:57;;;;;;;14.37;10.27;;;;;;;;;;4901667;29;20194;-84
2024/02/11 14:18:01;;;;;;;23.63;13.47;;;;;;;;;;4902100;29;20221;-83
2024/02/11 14:21:05;;;;;;;10.37;8.63;;;;;;;;;;4900791;29;20209;-84
2024/02/11 14:24:12;;;;;;;18.17;13.90;;;;;;;;;;4901970;29;20186;-84
2024/02/11 14:27:18;;;;;;;15.00;10.73;;;;;;;;;;4902035;29;20182;-84
2024/02/11 14:30:28;;;;;;;12.37;9.33;;;;;;;;;;4902725;29;20636;-83
2024/02/11 14:33:32;;;;;;;13.27;9.30;;;;;;;;;;4879960;29;20182;-83
2024/02/11 14:36:40;;;;;;;14.07;11.07;;;;;;;;;;4900985;29;20213;-83
2024/02/11 14:39:45;;;;;;;10.37;7.97;;;;;;;;;;4900363;29;20217;-83
2024/02/11 14:42:50;;;;;;;9.90;7.20;;;;;;;;;;4901768;29;20189;-83
2024/02/11 14:45:55;;;;;;;8.63;7.10;;;;;;;;;;4900507;29;20551;-83
2024/02/11 14:49:01;;;;;;;7.47;5.77;;;;;;;;;;4900844;29;20221;-83
2024/02/11 14:52:07;;;;;;;10.13;8.10;;;;;;;;;;4901997;29;20197;-83
2024/02/11 14:55:11;;;;;;;14.93;12.03;;;;;;;;;;4901977;29;20213;-83
2024/02/11 14:58:17;;;;;;;9.37;7.40;;;;;;;;;;4878706;29;20221;-83
2024/02/11 15:01:24;;;;;;;9.37;8.37;;;;;;;;;;4899629;29;20197;-83
2024/02/11 15:04:29;;;;;;;14.40;7.90;;;;;;;;;;4911556;29;20186;-82
2024/02/11 15:07:33;;;;;;;8.23;6.20;;;;;;;;;;4900645;29;20186;-83
2024/02/11 15:10:37;;;;;;;9.40;7.30;;;;;;;;;;4900794;29;20203;-83
2024/02/11 15:13:42;;;;;;;8.10;6.80;;;;;;;;;;4911343;29;20181;-82
2024/02/11 15:16:46;;;;;;;7.50;6.10;;;;;;;;;;4888710;29;20209;-83
2024/02/11 15:19:50;;;;;;;5.87;4.77;;;;;;;;;;4889029;29;20233;-83
2024/02/11 15:22:54;;;;;;;6.77;6.07;;;;;;;;;;4889201;29;20198;-82
2024/02/11 15:25:59;;;;;;;6.10;4.80;;;;;;;;;;4900458;29;20181;-83
2024/02/11 15:29:03;;;;;;;9.67;4.43;;;;;;;;;;4899884;29;20225;-83
2024/02/11 15:32:07;;;;;;;4.43;4.03;;;;;;;;;;4900125;29;20659;-83
2024/02/11 15:35:12;;;;;;;5.33;4.20;;;;;;;;;;4901295;29;20194;-83
2024/02/11 15:38:16;;;;;;;6.03;4.47;;;;;;;;;;4911402;29;20226;-83
2024/02/11 15:41:22;;;;;;;6.03;4.47;;;;;;;;;;4900784;29;20190;-83
2024/02/11 15:44:26;;;;;;;6.70;4.10;;;;;;;;;;4888997;29;20190;-83
2024/02/11 15:47:31;;;;;;;7.27;5.33;;;;;;;;;;4900071;29;20182;-83
2024/02/11 15:50:37;;;;;;;10.50;5.93;;;;;;;;;;4900285;29;20181;-82
2024/02/11 15:53:41;;;;;;;6.63;5.13;;;;;;;;;;4899360;29;20541;-82
2024/02/11 15:56:47;;;;;;;6.77;4.80;;;;;;;;;;4900195;29;20206;-82
2024/02/11 15:59:52;;;;;;;7.50;5.03;;;;;;;;;;4898843;29;20218;-82
2024/02/11 16:02:59;;;;;;;7.10;5.00;;;;;;;;;;4898693;29;20185;-82
2024/02/11 16:06:04;;;;;;;7.33;5.43;;;;;;;;;;4877719;29;20186;-83
2024/02/11 16:09:09;;;;;;;5.93;4.77;;;;;;;;;;4899285;29;20579;-82
2024/02/11 16:12:13;;;;;;;6.73;5.53;;;;;;;;;;4898766;29;20194;-82
2024/02/11 16:15:18;;;;;;;13.27;9.30;;;;;;;;;;4898526;29;20190;-82
2024/02/11 16:18:22;;;;;;;12.37;9.20;;;;;;;;;;4899254;29;20568;-83
2024/02/11 16:21:26;;;;;;;9.77;6.77;;;;;;;;;;4909621;29;20639;-83
2024/02/11 16:24:30;;;;;;;9.90;7.20;;;;;;;;;;4898560;29;20197;-82
2024/02/11 16:27:35;;;;;;;9.97;7.70;;;;;;;;;;4898356;29;20185;-82
2024/02/11 16:30:39;;;;;;;9.30;6.63;;;;;;;;;;4898310;29;20182;-82
2024/02/11 16:33:43;;;;;;;9.63;7.23;;;;;;;;;;4898381;29;20185;-82
2024/02/11 16:36:48;;;;;;;9.87;6.53;;;;;;;;;;4898547;29;20217;-82
2024/02/11 16:39:52;;;;;;;7.93;5.80;;;;;;;;;;4898025;29;20186;-82
2024/02/11 16:42:56;;;;;;;8.53;6.07;;;;;;;;;;4897924;29;20185;-83
2024/02/11 16:46:00;;;;;;;13.00;7.97;;;;;;;;;;4899360;29;20189;-82
2024/02/11 16:49:05;;;;;;;6.50;5.30;;;;;;;;;;4908432;29;20567;-82
2024/02/11 16:52:11;;;;;;;6.50;5.60;;;;;;;;;;4897794;29;20186;-82
2024/02/11 16:55:16;;;;;;;6.90;5.50;;;;;;;;;;4897657;29;20631;-81
2024/02/11 16:58:21;;;;;;;5.10;4.33;;;;;;;;;;4897294;29;20213;-82
2024/02/11 17:01:25;;;;;;;4.80;4.00;;;;;;;;;;4909704;29;20189;-82
2024/02/11 17:04:29;;;;;;;5.10;3.90;;;;;;;;;;4888158;29;20234;-81
2024/02/11 17:07:34;;;;;;;9.23;4.23;;;;;;;;;;4889138;29;20185;-81
2024/02/11 17:10:39;;;;;;;8.77;4.37;;;;;;;;;;4898704;29;20551;-82
2024/02/11 17:13:46;;;;;;;19.57;12.50;;;;;;;;;;4899004;29;20186;-83
2024/02/11 17:16:50;;;;;;;9.20;6.87;;;;;;;;;;4898730;29;20213;-81
2024/02/11 17:19:54;;;;;;;29.87;18.27;;;;;;;;;;4898685;29;20205;-81
2024/02/11 17:22:58;;;;;;;11.90;8.57;;;;;;;;;;4898049;29;20631;-81
2024/02/11 17:26:05;;;;;;;8.20;6.80;;;;;;;;;;4898304;29;20189;-81
2024/02/11 17:29:10;;;;;;;8.40;6.17;;;;;;;;;;4887100;29;20221;-81
2024/02/11 17:32:14;;;;;;;7.30;5.63;;;;;;;;;;4898840;29;20185;-81
2024/02/11 17:35:18;;;;;;;8.50;6.63;;;;;;;;;;4897954;29;20186;-81
2024/02/11 17:38:25;;;;;;;6.77;5.53;;;;;;;;;;4909886;29;20209;-81
2024/02/11 17:41:30;;;;;;;6.07;4.80;;;;;;;;;;4905478;29;20189;-81
2024/02/11 17:44:39;;;;;;;6.60;4.83;;;;;;;;;;4903920;29;20190;-81
2024/02/11 17:47:44;;;;;;;8.73;5.13;;;;;;;;;;4883158;29;20213;-81
2024/02/11 17:50:51;;;;;;;8.00;5.47;;;;;;;;;;4904892;29;20185;-81
2024/02/11 17:53:59;;;;;;;6.80;5.07;;;;;;;;;;4904839;29;20189;-81
2024/02/11 17:57:03;;;;;;;5.73;5.00;;;;;;;;;;4903866;29;20217;-81
2024/02/11 18:00:09;;;;;;;6.17;4.60;;;;;;;;;;4905000;29;20185;-81
2024/02/11 18:03:19;;;;;;;6.63;4.93;;;;;;;;;;4903565;29;20182;-81
2024/02/11 18:06:23;;;;;;;7.37;6.27;;;;;;;;;;4903326;29;20182;-81
2024/02/11 18:09:27;;;;;;;6.87;5.23;;;;;;;;;;4903360;29;20225;-81
2024/02/11 18:12:32;;;;;;;14.13;8.83;;;;;;;;;;4904128;29;20634;-81
2024/02/11 18:15:38;;;;;;;8.50;6.37;;;;;;;;;;4904476;29;20194;-81
2024/02/11 18:18:43;;;;;;;9.30;6.43;;;;;;;;;;4904662;29;20217;-82
2024/02/11 18:21:48;;;;;;;16.20;12.80;;;;;;;;;;4904503;29;20592;-81
2024/02/11 18:24:52;;;;;;;28.63;20.93;;;;;;;;;;4904723;29;20228;-81